Time;durP1;ratioP1;P1;durP2;ratioP2;P2;SDS_P1;SDS_P2;PMS_P1;PMS_P2;Temp;Humidity;BMP_temperature;BMP_pressure;BME280_temperature;BME280_humidity;BME280_pressure;Samples;Min_cycle;Max_cycle;Signal;HPM_P1;HPM_P2
2023/02/28 00:00:09;;;;;;;4.57;4.13;;;1.40;94.70;;;;;;4984133;28;20789;-70
2023/02/28 00:02:39;;;;;;;5.30;4.03;;;1.40;94.80;;;;;;4984071;28;20439;-72
2023/02/28 00:05:06;;;;;;;7.20;3.87;;;1.50;94.80;;;;;;4984439;28;20468;-72
2023/02/28 00:07:32;;;;;;;4.20;3.70;;;1.40;95.10;;;;;;4984027;28;20798;-72
2023/02/28 00:09:57;;;;;;;4.33;3.93;;;1.50;95.00;;;;;;4967042;28;20869;-71
2023/02/28 00:12:23;;;;;;;5.93;3.70;;;1.40;95.30;;;;;;4984688;28;20288;-72
2023/02/28 00:14:49;;;;;;;6.00;4.00;;;1.40;95.20;;;;;;4984124;28;20500;-70
2023/02/28 00:17:17;;;;;;;4.50;3.77;;;1.40;95.50;;;;;;4984297;28;20420;-71
2023/02/28 00:19:43;;;;;;;4.27;3.87;;;1.40;95.50;;;;;;4984911;28;20419;-71
2023/02/28 00:22:09;;;;;;;4.53;4.13;;;1.40;95.70;;;;;;4983990;28;20849;-72
2023/02/28 00:24:34;;;;;;;3.70;3.40;;;1.20;95.50;;;;;;4984484;28;20243;-72
2023/02/28 00:27:00;;;;;;;4.20;3.60;;;1.20;95.90;;;;;;4984488;28;20400;-72
2023/02/28 00:29:25;;;;;;;3.70;3.23;;;1.20;96.10;;;;;;5009415;22;20180;-66
2023/02/28 00:31:51;;;;;;;4.23;3.83;;;1.00;95.90;;;;;;4983128;28;20227;-68
2023/02/28 00:34:16;;;;;;;6.50;4.20;;;1.00;96.00;;;;;;4986876;28;20187;-69
2023/02/28 00:36:45;;;;;;;3.47;3.13;;;1.00;96.30;;;;;;4987830;28;20184;-66
2023/02/28 00:39:11;;;;;;;8.40;4.40;;;1.10;96.70;;;;;;4987267;28;20503;-69
2023/02/28 00:41:36;;;;;;;4.13;3.67;;;1.00;96.70;;;;;;4987664;28;20527;-68
2023/02/28 00:44:02;;;;;;;5.97;3.37;;;1.10;97.20;;;;;;4987175;28;20325;-68
2023/02/28 00:46:27;;;;;;;5.07;3.73;;;1.00;97.10;;;;;;4987774;28;20224;-68
2023/02/28 00:48:53;;;;;;;4.40;4.00;;;1.00;97.10;;;;;;4987608;28;20258;-67
2023/02/28 00:51:18;;;;;;;8.23;3.90;;;1.00;97.40;;;;;;4987242;28;20235;-69
2023/02/28 00:53:44;;;;;;;4.40;3.40;;;1.00;97.40;;;;;;4987106;28;20177;-67
2023/02/28 00:56:10;;;;;;;5.80;3.60;;;1.00;97.80;;;;;;4987499;28;20239;-67
2023/02/28 00:58:35;;;;;;;4.50;4.10;;;1.00;97.80;;;;;;4987200;28;20547;-69
2023/02/28 01:01:01;;;;;;;5.17;4.50;;;0.90;98.20;;;;;;4987587;28;20290;-70
2023/02/28 01:03:26;;;;;;;5.50;4.30;;;0.80;98.10;;;;;;4984635;28;21037;-69
2023/02/28 01:05:53;;;;;;;4.70;3.60;;;0.90;98.10;;;;;;4987786;28;20271;-69
2023/02/28 01:08:18;;;;;;;4.90;4.17;;;0.80;98.00;;;;;;4987263;28;20684;-69
2023/02/28 01:10:44;;;;;;;4.70;3.60;;;0.80;98.10;;;;;;4987166;28;20984;-67
2023/02/28 01:13:10;;;;;;;3.83;3.53;;;1.00;98.50;;;;;;4987654;28;20192;-69
2023/02/28 01:15:36;;;;;;;3.83;3.43;;;1.00;98.50;;;;;;4986684;28;20272;-67
2023/02/28 01:18:01;;;;;;;3.90;3.60;;;1.10;98.60;;;;;;4969512;28;20858;-69
2023/02/28 01:20:27;;;;;;;3.63;2.80;;;1.10;98.70;;;;;;4986607;28;20204;-67
2023/02/28 01:22:52;;;;;;;3.50;3.13;;;1.10;98.80;;;;;;4986821;28;20186;-69
2023/02/28 01:25:18;;;;;;;4.40;4.00;;;1.00;98.50;;;;;;4986438;28;20275;-66
2023/02/28 01:27:44;;;;;;;3.87;3.57;;;0.80;98.90;;;;;;4986822;28;20176;-69
2023/02/28 01:30:10;;;;;;;5.00;4.20;;;0.90;99.40;;;;;;4985839;28;20213;-69
2023/02/28 01:32:36;;;;;;;5.80;3.90;;;0.90;99.70;;;;;;4987094;28;20195;-69
2023/02/28 01:35:02;;;;;;;5.30;3.60;;;1.00;99.80;;;;;;4986361;28;20419;-67
2023/02/28 01:37:28;;;;;;;4.00;3.60;;;1.00;99.70;;;;;;4986654;28;20639;-68
2023/02/28 01:39:53;;;;;;;4.60;4.20;;;1.00;99.90;;;;;;4986796;28;20258;-68
2023/02/28 01:42:19;;;;;;;5.20;4.67;;;0.90;99.90;;;;;;4985245;28;21048;-68
2023/02/28 01:44:57;;;;;;;5.13;3.90;;;0.80;99.90;;;;;;4985202;28;20215;-69
2023/02/28 01:47:24;;;;;;;5.50;4.10;;;0.90;99.90;;;;;;4986189;28;20203;-67
2023/02/28 01:49:51;;;;;;;4.50;3.80;;;0.90;99.90;;;;;;4985704;28;20849;-67
2023/02/28 01:52:21;;;;;;;4.90;4.40;;;0.90;99.90;;;;;;4986597;28;20518;-68
2023/02/28 01:54:54;;;;;;;4.80;3.90;;;0.90;99.90;;;;;;4986644;28;20503;-69
2023/02/28 01:57:25;;;;;;;4.33;3.97;;;1.00;99.90;;;;;;4985848;28;20490;-66
2023/02/28 01:59:56;;;;;;;5.93;3.50;;;1.00;99.90;;;;;;4985898;28;21020;-67
2023/02/28 02:02:24;;;;;;;4.40;3.60;;;0.90;99.90;;;;;;4986188;28;20447;-68
2023/02/28 02:05:01;;;;;;;4.57;4.03;;;1.00;99.90;;;;;;4985845;28;20844;-67
2023/02/28 02:07:31;;;;;;;4.80;4.40;;;0.90;99.90;;;;;;4986482;28;20887;-68
2023/02/28 02:10:05;;;;;;;4.27;3.70;;;0.70;99.90;;;;;;4985666;28;21016;-68
2023/02/28 02:12:52;;;;;;;4.73;4.33;;;0.80;99.90;;;;;;4986034;28;20885;-69
2023/02/28 02:15:43;;;;;;;4.87;4.37;;;0.80;99.90;;;;;;4985548;28;20490;-68
2023/02/28 02:18:50;;;;;;;5.00;4.50;;;1.00;99.90;;;;;;4985178;28;20451;-69
2023/02/28 02:21:51;;;;;;;4.00;3.70;;;1.00;99.90;;;;;;4958506;28;20467;-67
2023/02/28 02:24:38;;;;;;;4.90;4.37;;;0.90;99.90;;;;;;4985911;28;20917;-66
2023/02/28 02:27:03;;;;;;;4.50;4.10;;;1.00;99.90;;;;;;4985849;28;20495;-67
2023/02/28 02:29:50;;;;;;;4.50;4.10;;;1.00;99.90;;;;;;4975007;28;20933;-70
2023/02/28 02:32:43;;;;;;;6.90;5.13;;;1.00;99.90;;;;;;4985737;28;20182;-70
2023/02/28 02:35:39;;;;;;;10.10;3.83;;;1.00;99.90;;;;;;4985632;28;20442;-68
2023/02/28 02:38:18;;;;;;;5.47;4.93;;;0.90;99.90;;;;;;4982804;28;20457;-68
2023/02/28 02:41:03;;;;;;;8.03;5.10;;;0.80;99.90;;;;;;4985742;28;20459;-71
2023/02/28 02:43:36;;;;;;;4.70;4.30;;;0.60;99.90;;;;;;4985321;28;20410;-70
2023/02/28 02:46:11;;;;;;;4.50;4.10;;;0.80;99.90;;;;;;4983491;28;20418;-69
2023/02/28 02:48:40;;;;;;;5.07;4.57;;;0.60;99.90;;;;;;4985616;28;20401;-71
2023/02/28 02:51:11;;;;;;;5.70;4.90;;;0.30;99.90;;;;;;4984922;28;20445;-67
2023/02/28 02:53:56;;;;;;;4.80;4.40;;;0.30;99.90;;;;;;4985789;28;20434;-68
2023/02/28 02:56:28;;;;;;;4.93;4.50;;;0.40;99.90;;;;;;4984814;28;20419;-68
2023/02/28 02:58:58;;;;;;;7.00;5.80;;;0.50;99.90;;;;;;4985248;28;20426;-68
2023/02/28 03:01:27;;;;;;;4.90;4.33;;;0.60;99.90;;;;;;4984956;28;21236;-68
2023/02/28 03:03:57;;;;;;;5.93;5.40;;;0.60;99.90;;;;;;4985144;28;20423;-69
2023/02/28 03:06:22;;;;;;;6.50;4.97;;;0.40;99.90;;;;;;4984876;28;20419;-67
2023/02/28 03:08:49;;;;;;;6.83;5.83;;;0.60;99.90;;;;;;4985159;28;20785;-68
2023/02/28 03:11:15;;;;;;;6.43;5.37;;;0.50;99.90;;;;;;4984835;28;20348;-68
2023/02/28 03:14:02;;;;;;;6.80;6.13;;;0.50;99.90;;;;;;4984807;28;20478;-68
2023/02/28 03:16:49;;;;;;;6.10;5.03;;;0.30;99.90;;;;;;4985435;28;20411;-68
2023/02/28 03:19:26;;;;;;;6.83;5.13;;;0.40;99.90;;;;;;4984896;28;20985;-69
2023/02/28 03:22:05;;;;;;;6.03;5.20;;;0.50;99.90;;;;;;4984480;28;20492;-67
2023/02/28 03:24:33;;;;;;;5.63;5.10;;;0.60;99.90;;;;;;4984567;28;20447;-70
2023/02/28 03:27:09;;;;;;;7.10;6.40;;;0.50;99.90;;;;;;4983779;28;20428;-69
2023/02/28 03:29:41;;;;;;;5.93;5.13;;;0.40;99.90;;;;;;4984697;28;20444;-70
2023/02/28 03:32:17;;;;;;;14.23;6.23;;;0.60;99.90;;;;;;4984892;28;20466;-70
2023/02/28 03:35:05;;;;;;;6.13;5.60;;;0.80;99.90;;;;;;4985056;28;20844;-71
2023/02/28 03:37:35;;;;;;;8.10;6.50;;;0.80;99.90;;;;;;4985130;28;20414;-70
2023/02/28 03:40:22;;;;;;;6.77;5.97;;;0.60;99.90;;;;;;4984237;28;20926;-71
2023/02/28 03:42:54;;;;;;;7.47;6.40;;;0.80;99.90;;;;;;4984137;28;21251;-70
2023/02/28 03:45:25;;;;;;;8.50;6.67;;;0.70;99.90;;;;;;4984449;28;20415;-69
2023/02/28 03:47:53;;;;;;;7.10;5.83;;;0.60;99.90;;;;;;4984339;28;20404;-70
2023/02/28 03:50:35;;;;;;;7.33;6.53;;;0.60;99.90;;;;;;4984105;28;20800;-69
2023/02/28 03:53:13;;;;;;;9.73;7.30;;;0.50;99.90;;;;;;4984531;28;21240;-72
2023/02/28 03:55:43;;;;;;;6.50;5.73;;;0.70;99.90;;;;;;4984267;28;20526;-69
2023/02/28 03:58:20;;;;;;;6.60;6.00;;;0.90;99.90;;;;;;4984104;28;20410;-71
2023/02/28 04:00:55;;;;;;;7.40;6.40;;;0.70;99.90;;;;;;4983937;28;20449;-69
2023/02/28 04:03:20;;;;;;;10.47;7.97;;;0.80;99.90;;;;;;4984465;28;20762;-69
2023/02/28 04:05:52;;;;;;;7.90;6.73;;;0.90;99.90;;;;;;4984070;28;20470;-71
2023/02/28 04:08:18;;;;;;;11.40;6.73;;;0.90;99.90;;;;;;4983645;28;20192;-68
2023/02/28 04:10:49;;;;;;;6.97;5.93;;;0.80;99.90;;;;;;4983908;28;20435;-68
2023/02/28 04:13:15;;;;;;;7.10;6.40;;;1.00;99.90;;;;;;4983952;28;20187;-69
2023/02/28 04:15:41;;;;;;;6.93;6.23;;;1.20;99.90;;;;;;4984010;28;20415;-69
2023/02/28 04:18:06;;;;;;;7.17;6.30;;;1.30;99.90;;;;;;4983857;28;20188;-68
2023/02/28 04:20:32;;;;;;;8.90;7.00;;;1.30;99.90;;;;;;4983274;28;20282;-69
2023/02/28 04:22:57;;;;;;;9.53;5.57;;;1.20;99.90;;;;;;4983711;28;20655;-69
2023/02/28 04:25:23;;;;;;;6.90;6.03;;;1.00;99.90;;;;;;4983875;28;20317;-68
2023/02/28 04:27:48;;;;;;;7.20;5.80;;;0.90;99.90;;;;;;4983517;28;20181;-69
2023/02/28 04:30:14;;;;;;;6.70;6.13;;;0.60;99.90;;;;;;4983568;28;20216;-69
2023/02/28 04:32:39;;;;;;;6.83;6.17;;;0.60;99.90;;;;;;4983411;28;20325;-68
2023/02/28 04:35:05;;;;;;;6.10;5.50;;;0.80;99.90;;;;;;4983791;28;20643;-69
2023/02/28 04:37:34;;;;;;;9.57;6.50;;;0.90;99.90;;;;;;4983281;28;20181;-67
2023/02/28 04:40:00;;;;;;;6.13;5.53;;;1.00;99.90;;;;;;4983673;28;20512;-68
2023/02/28 04:42:26;;;;;;;7.60;6.90;;;1.10;99.90;;;;;;4983393;28;20937;-69
2023/02/28 04:44:52;;;;;;;8.53;6.20;;;0.90;99.90;;;;;;4983841;28;20451;-67
2023/02/28 04:47:17;;;;;;;7.60;5.80;;;0.90;99.90;;;;;;4983940;28;20183;-67
2023/02/28 04:49:43;;;;;;;7.03;6.40;;;0.70;99.90;;;;;;4983809;28;20204;-70
2023/02/28 04:52:09;;;;;;;7.13;6.37;;;0.50;99.90;;;;;;4982916;28;20183;-70
2023/02/28 04:54:35;;;;;;;6.60;6.00;;;0.40;99.90;;;;;;4983755;28;20567;-69
2023/02/28 04:57:01;;;;;;;6.90;6.27;;;0.60;99.90;;;;;;4983479;28;20778;-68
2023/02/28 04:59:27;;;;;;;7.53;5.97;;;0.70;99.90;;;;;;4983677;28;20603;-69
2023/02/28 05:01:52;;;;;;;7.80;6.70;;;0.60;99.90;;;;;;4983192;28;20455;-69
2023/02/28 05:04:18;;;;;;;7.13;5.83;;;0.50;99.90;;;;;;4983349;28;20234;-68
2023/02/28 05:06:44;;;;;;;8.00;6.63;;;0.50;99.90;;;;;;4983164;28;20591;-67
2023/02/28 05:09:13;;;;;;;7.17;6.50;;;0.50;99.90;;;;;;4983239;28;20180;-68
2023/02/28 05:11:39;;;;;;;8.30;7.30;;;0.50;99.90;;;;;;4982954;28;20806;-67
2023/02/28 05:14:09;;;;;;;5.90;5.27;;;0.60;99.90;;;;;;4983447;28;20450;-67
2023/02/28 05:16:34;;;;;;;7.53;6.67;;;0.70;99.90;;;;;;4983154;28;20779;-68
2023/02/28 05:19:00;;;;;;;7.23;6.53;;;0.70;99.90;;;;;;4985083;28;20447;-70
2023/02/28 05:21:27;;;;;;;9.10;6.97;;;0.60;99.90;;;;;;4986203;28;20230;-67
2023/02/28 05:23:53;;;;;;;8.83;6.83;;;0.60;99.90;;;;;;4969584;28;20678;-68
2023/02/28 05:26:19;;;;;;;8.20;7.07;;;0.50;99.90;;;;;;4986919;28;20881;-69
2023/02/28 05:28:45;;;;;;;9.50;6.63;;;0.40;99.90;;;;;;4986713;28;20441;-69
2023/02/28 05:31:11;;;;;;;9.70;8.07;;;0.40;99.90;;;;;;4969115;28;20474;-68
2023/02/28 05:33:36;;;;;;;7.70;7.00;;;0.60;99.90;;;;;;4986582;28;20187;-67
2023/02/28 05:36:03;;;;;;;6.67;6.07;;;0.60;99.90;;;;;;4984915;28;20608;-68
2023/02/28 05:38:28;;;;;;;8.97;6.50;;;0.50;99.90;;;;;;4984080;28;20220;-69
2023/02/28 05:40:54;;;;;;;10.07;7.83;;;0.60;99.90;;;;;;4986525;28;21107;-69
2023/02/28 05:43:19;;;;;;;8.50;7.00;;;0.70;99.90;;;;;;4985931;28;20601;-67
2023/02/28 05:45:45;;;;;;;7.90;6.70;;;0.60;99.90;;;;;;4986966;28;20193;-68
2023/02/28 05:48:10;;;;;;;8.00;7.30;;;0.50;99.90;;;;;;4986725;28;20217;-68
2023/02/28 05:50:36;;;;;;;8.67;7.37;;;0.50;99.90;;;;;;4986112;28;20208;-68
2023/02/28 05:53:03;;;;;;;7.97;7.17;;;0.60;99.90;;;;;;4986395;28;20812;-68
2023/02/28 05:55:29;;;;;;;7.83;7.03;;;0.70;99.90;;;;;;4985759;28;20937;-67
2023/02/28 05:57:55;;;;;;;8.07;6.60;;;0.60;99.90;;;;;;4985945;28;20415;-70
2023/02/28 06:00:21;;;;;;;7.60;6.90;;;0.50;99.90;;;;;;4985904;28;20208;-69
2023/02/28 06:02:47;;;;;;;7.70;6.90;;;0.50;99.90;;;;;;4986179;28;20422;-70
2023/02/28 06:05:17;;;;;;;10.20;8.50;;;0.50;99.90;;;;;;4986544;28;20419;-69
2023/02/28 06:07:44;;;;;;;8.97;8.00;;;0.50;99.90;;;;;;4986437;28;20528;-69
2023/02/28 06:10:11;;;;;;;9.40;7.73;;;0.70;99.90;;;;;;4985824;28;20446;-70
2023/02/28 06:12:38;;;;;;;8.53;7.63;;;0.70;99.90;;;;;;4986064;28;20424;-69
2023/02/28 06:15:04;;;;;;;9.90;7.87;;;0.60;99.90;;;;;;4985557;28;20442;-70
2023/02/28 06:17:29;;;;;;;7.97;7.27;;;0.70;99.90;;;;;;4986008;28;20788;-68
2023/02/28 06:19:55;;;;;;;7.83;7.07;;;0.80;99.90;;;;;;4985976;28;20435;-70
2023/02/28 06:22:21;;;;;;;10.40;7.20;;;0.90;99.90;;;;;;4968007;28;20219;-68
2023/02/28 06:24:46;;;;;;;8.63;7.43;;;0.80;99.90;;;;;;4985507;28;20208;-69
2023/02/28 06:27:12;;;;;;;11.17;8.00;;;0.70;99.90;;;;;;4985217;28;20552;-69
2023/02/28 06:29:39;;;;;;;9.83;7.60;;;0.70;99.90;;;;;;4984915;28;20277;-69
2023/02/28 06:32:05;;;;;;;10.47;7.70;;;0.70;99.90;;;;;;4984616;28;20528;-70
2023/02/28 06:34:31;;;;;;;8.80;7.93;;;0.80;99.90;;;;;;4984612;28;20764;-68
2023/02/28 06:37:01;;;;;;;11.60;8.47;;;1.10;99.90;;;;;;4985087;28;20434;-69
2023/02/28 06:39:30;;;;;;;12.40;9.00;;;1.00;99.90;;;;;;4984830;28;20273;-69
2023/02/28 06:41:56;;;;;;;14.90;11.90;;;0.80;99.90;;;;;;4984117;28;20490;-69
2023/02/28 06:44:23;;;;;;;12.40;8.17;;;0.80;99.90;;;;;;4984491;28;20914;-69
2023/02/28 06:46:49;;;;;;;11.07;8.07;;;0.90;99.90;;;;;;4984439;28;20188;-68
2023/02/28 06:49:15;;;;;;;9.53;7.37;;;1.20;99.90;;;;;;4984181;28;20512;-68
2023/02/28 06:51:46;;;;;;;9.17;8.00;;;1.20;99.90;;;;;;4982853;28;20830;-69
2023/02/28 06:54:12;;;;;;;9.17;8.00;;;1.20;99.90;;;;;;4984272;28;20408;-69
2023/02/28 06:56:39;;;;;;;9.43;7.67;;;1.40;99.90;;;;;;4983673;28;20536;-68
2023/02/28 06:59:05;;;;;;;10.70;8.43;;;1.30;99.90;;;;;;4984011;28;20860;-68
2023/02/28 07:01:32;;;;;;;11.80;9.10;;;1.30;99.90;;;;;;4983621;28;20466;-67
2023/02/28 07:03:59;;;;;;;10.20;7.67;;;1.30;99.90;;;;;;4984409;28;20928;-68
2023/02/28 07:06:25;;;;;;;10.13;8.30;;;1.30;99.90;;;;;;4984057;28;20442;-67
2023/02/28 07:08:54;;;;;;;9.50;8.40;;;1.50;99.90;;;;;;4984282;28;20407;-68
2023/02/28 07:11:22;;;;;;;11.77;8.17;;;1.60;99.90;;;;;;4983212;28;20220;-68
2023/02/28 07:13:48;;;;;;;12.70;9.33;;;1.80;99.90;;;;;;4972970;23;1087004;-73
2023/02/28 07:16:14;;;;;;;12.50;9.30;;;1.40;99.90;;;;;;5002066;28;20435;-74
2023/02/28 07:18:39;;;;;;;11.33;9.83;;;1.30;99.90;;;;;;4991347;28;20424;-73
2023/02/28 07:21:07;;;;;;;13.10;10.57;;;1.20;99.90;;;;;;4967642;28;20675;-70
2023/02/28 07:23:33;;;;;;;10.47;9.20;;;1.40;99.90;;;;;;4984989;28;20203;-72
2023/02/28 07:25:58;;;;;;;13.63;9.33;;;1.50;99.90;;;;;;4984757;28;20415;-72
2023/02/28 07:28:24;;;;;;;13.27;9.80;;;1.70;99.90;;;;;;4984974;28;20216;-72
2023/02/28 07:30:50;;;;;;;12.83;10.33;;;1.80;99.90;;;;;;4985274;28;20198;-74
2023/02/28 07:33:16;;;;;;;15.00;9.53;;;1.80;99.90;;;;;;4984759;28;20204;-73
2023/02/28 07:35:41;;;;;;;13.03;9.43;;;1.70;99.90;;;;;;4984758;28;20199;-72
2023/02/28 07:38:07;;;;;;;13.10;9.33;;;1.60;99.90;;;;;;4984621;28;20460;-70
2023/02/28 07:40:34;;;;;;;11.20;9.30;;;1.50;99.90;;;;;;4984861;28;20235;-72
2023/02/28 07:43:01;;;;;;;11.70;9.83;;;1.40;99.90;;;;;;4984673;28;20683;-71
2023/02/28 07:45:28;;;;;;;11.80;10.07;;;1.60;99.90;;;;;;4984626;28;20419;-74
2023/02/28 07:47:54;;;;;;;12.37;10.20;;;1.40;99.90;;;;;;4984537;28;20408;-72
2023/02/28 07:50:19;;;;;;;11.20;10.00;;;1.50;99.90;;;;;;4984459;28;20795;-71
2023/02/28 07:52:45;;;;;;;12.10;9.37;;;1.50;99.90;;;;;;4984523;28;20205;-72
2023/02/28 07:55:11;;;;;;;9.80;8.80;;;1.60;99.90;;;;;;4984338;28;20250;-71
2023/02/28 07:57:37;;;;;;;11.50;10.03;;;1.60;99.90;;;;;;4984085;28;20200;-71
2023/02/28 08:00:05;;;;;;;10.90;9.40;;;1.80;99.90;;;;;;4966718;28;20757;-71
2023/02/28 08:02:30;;;;;;;10.67;9.57;;;2.10;99.90;;;;;;4984108;28;20467;-73
2023/02/28 08:04:56;;;;;;;11.27;9.80;;;2.10;99.90;;;;;;4984579;28;20426;-73
2023/02/28 08:07:21;;;;;;;11.23;10.13;;;2.00;99.90;;;;;;4983953;28;20188;-71
2023/02/28 08:09:47;;;;;;;11.77;10.57;;;1.80;99.90;;;;;;4984405;28;20267;-72
2023/02/28 08:12:13;;;;;;;11.33;10.13;;;1.70;99.90;;;;;;4966100;28;20242;-71
2023/02/28 08:14:39;;;;;;;10.90;9.67;;;1.70;99.90;;;;;;4984265;28;20180;-74
2023/02/28 08:17:05;;;;;;;11.70;10.33;;;1.50;99.90;;;;;;4984152;28;20736;-72
2023/02/28 08:19:31;;;;;;;11.83;9.67;;;1.50;99.90;;;;;;4984043;28;20426;-71
2023/02/28 08:21:57;;;;;;;11.00;9.90;;;1.60;99.90;;;;;;4984378;28;20945;-72
2023/02/28 08:24:23;;;;;;;11.70;10.50;;;1.60;99.90;;;;;;4984262;28;20727;-71
2023/02/28 08:26:49;;;;;;;11.00;9.30;;;1.60;99.90;;;;;;4984095;28;20234;-72
2023/02/28 08:29:15;;;;;;;11.90;10.10;;;1.80;99.90;;;;;;4984022;28;20238;-71
2023/02/28 08:31:41;;;;;;;13.97;11.40;;;1.80;99.90;;;;;;4966838;28;20427;-73
2023/02/28 08:34:11;;;;;;;11.60;10.33;;;1.70;99.90;;;;;;4983877;28;20208;-70
2023/02/28 08:36:37;;;;;;;10.53;9.43;;;1.60;99.90;;;;;;4966160;28;20507;-71
2023/02/28 08:39:03;;;;;;;14.40;11.13;;;1.40;99.90;;;;;;4984055;28;20419;-72
2023/02/28 08:41:29;;;;;;;14.13;10.70;;;1.50;99.90;;;;;;4983871;28;20934;-70
2023/02/28 08:43:55;;;;;;;11.93;9.90;;;1.40;99.90;;;;;;4983745;28;20440;-70
2023/02/28 08:46:20;;;;;;;11.87;9.23;;;1.40;99.90;;;;;;4983995;28;20184;-70
2023/02/28 08:48:46;;;;;;;11.23;9.80;;;1.50;99.90;;;;;;4983646;28;20185;-72
2023/02/28 08:51:18;;;;;;;11.27;9.93;;;1.70;99.90;;;;;;4983809;28;20185;-73
2023/02/28 08:53:43;;;;;;;13.90;11.40;;;1.70;99.90;;;;;;4967700;28;20212;-70
2023/02/28 08:56:14;;;;;;;11.60;9.60;;;1.70;99.90;;;;;;4987642;28;20436;-72
2023/02/28 08:58:40;;;;;;;12.93;10.70;;;1.60;99.90;;;;;;4987352;28;20230;-72
2023/02/28 09:01:29;;;;;;;11.87;10.53;;;1.60;99.90;;;;;;4969880;28;20538;-73
2023/02/28 09:03:55;;;;;;;13.20;10.00;;;1.70;99.90;;;;;;4959983;28;20877;-71
2023/02/28 09:06:23;;;;;;;10.77;9.63;;;1.80;99.90;;;;;;4987108;28;20426;-71
2023/02/28 09:08:49;;;;;;;11.40;10.07;;;1.90;99.90;;;;;;4987219;28;20466;-73
2023/02/28 09:11:15;;;;;;;11.50;10.40;;;2.00;99.90;;;;;;4988023;28;20423;-73
2023/02/28 09:13:40;;;;;;;12.40;10.40;;;2.00;99.90;;;;;;4987338;28;20838;-73
2023/02/28 09:16:08;;;;;;;17.10;10.73;;;2.10;99.90;;;;;;4987763;28;20651;-71
2023/02/28 09:18:38;;;;;;;12.33;11.13;;;2.30;99.90;;;;;;4987750;28;20177;-71
2023/02/28 09:21:05;;;;;;;11.00;9.90;;;2.40;99.90;;;;;;4987281;28;20542;-72
2023/02/28 09:23:30;;;;;;;10.40;9.40;;;2.20;99.90;;;;;;4970001;28;20432;-74
2023/02/28 09:25:56;;;;;;;13.50;11.10;;;2.10;99.90;;;;;;4987496;28;20785;-75
2023/02/28 09:28:22;;;;;;;14.20;11.30;;;1.90;99.90;;;;;;4987083;28;20415;-73
2023/02/28 09:30:51;;;;;;;15.33;11.20;;;1.90;99.90;;;;;;4987062;28;20192;-73
2023/02/28 09:33:20;;;;;;;15.40;11.43;;;1.90;99.90;;;;;;4969471;28;20866;-72
2023/02/28 09:35:46;;;;;;;12.20;10.67;;;2.00;99.90;;;;;;4987468;28;20838;-73
2023/02/28 09:38:12;;;;;;;13.33;10.73;;;2.20;99.90;;;;;;4969515;28;20423;-73
2023/02/28 09:40:46;;;;;;;13.00;11.27;;;2.40;99.90;;;;;;4987215;28;20456;-73
2023/02/28 09:43:15;;;;;;;14.00;11.70;;;2.80;99.90;;;;;;4986876;28;20242;-73
2023/02/28 09:45:48;;;;;;;13.10;11.63;;;2.60;99.90;;;;;;4969357;28;20455;-73
2023/02/28 09:48:23;;;;;;;14.67;10.50;;;2.70;99.90;;;;;;4968783;28;20444;-71
2023/02/28 09:50:52;;;;;;;11.40;10.30;;;2.90;99.90;;;;;;4986705;28;20423;-72
2023/02/28 09:53:38;;;;;;;12.40;11.10;;;3.10;99.90;;;;;;4986538;28;20957;-72
2023/02/28 09:56:27;;;;;;;16.53;13.90;;;3.30;99.90;;;;;;4969175;28;20432;-73
2023/02/28 09:59:10;;;;;;;12.27;10.03;;;3.00;99.90;;;;;;4986684;28;20791;-73
2023/02/28 10:02:08;;;;;;;11.23;9.90;;;3.00;99.90;;;;;;4986643;28;20829;-73
2023/02/28 10:04:45;;;;;;;13.07;10.77;;;2.80;99.90;;;;;;4946795;28;20428;-71
2023/02/28 10:07:43;;;;;;;12.40;11.10;;;2.90;99.90;;;;;;4969149;28;20420;-73
2023/02/28 10:10:24;;;;;;;11.10;10.00;;;2.90;99.90;;;;;;4953652;28;20434;-71
2023/02/28 10:12:53;;;;;;;14.90;10.47;;;3.00;99.90;;;;;;4968555;28;20490;-71
2023/02/28 10:15:21;;;;;;;13.90;11.00;;;3.20;99.90;;;;;;4986623;28;20432;-73
2023/02/28 10:17:53;;;;;;;13.30;11.60;;;3.20;99.90;;;;;;4969059;28;20432;-73
2023/02/28 10:20:22;;;;;;;13.40;10.70;;;3.20;99.90;;;;;;4986523;28;20789;-72
2023/02/28 10:23:07;;;;;;;15.93;10.80;;;3.10;99.90;;;;;;4986473;28;20443;-72
2023/02/28 10:25:35;;;;;;;15.53;11.50;;;2.90;99.90;;;;;;4986948;28;20458;-74
2023/02/28 10:28:13;;;;;;;11.70;10.23;;;2.90;99.90;;;;;;4985828;28;20416;-71
2023/02/28 10:30:42;;;;;;;13.47;12.07;;;3.00;99.90;;;;;;4967878;28;20431;-70
2023/02/28 10:33:19;;;;;;;12.83;11.37;;;3.10;99.90;;;;;;4986322;28;20440;-72
2023/02/28 10:35:46;;;;;;;11.43;10.23;;;3.10;99.90;;;;;;4986340;28;20426;-72
2023/02/28 10:38:17;;;;;;;12.40;11.00;;;3.20;99.90;;;;;;4986096;28;20465;-71
2023/02/28 10:40:42;;;;;;;13.73;11.30;;;3.70;99.90;;;;;;4968465;28;20474;-73
2023/02/28 10:43:14;;;;;;;12.37;11.17;;;4.00;99.90;;;;;;4968427;28;20456;-72
2023/02/28 10:45:57;;;;;;;11.63;10.23;;;3.90;99.90;;;;;;4968373;28;20651;-70
2023/02/28 10:48:22;;;;;;;13.20;10.87;;;3.60;99.90;;;;;;4986107;28;20415;-72
2023/02/28 10:50:49;;;;;;;11.17;10.07;;;3.60;99.90;;;;;;4985972;28;20806;-71
2023/02/28 10:53:15;;;;;;;14.30;11.63;;;3.60;99.90;;;;;;4968717;28;20300;-71
2023/02/28 10:55:40;;;;;;;12.00;9.80;;;3.70;99.90;;;;;;4967806;28;20434;-71
2023/02/28 10:58:46;;;;;;;11.83;10.50;;;3.70;99.90;;;;;;4985604;28;20663;-74
2023/02/28 11:01:37;;;;;;;13.20;11.90;;;3.90;99.90;;;;;;4944802;28;20217;-72
2023/02/28 11:04:17;;;;;;;12.20;10.90;;;3.70;99.90;;;;;;4984659;28;20428;-72
2023/02/28 11:06:42;;;;;;;14.30;11.30;;;3.70;99.90;;;;;;4985786;28;20391;-73
2023/02/28 11:09:26;;;;;;;12.47;11.17;;;3.90;99.90;;;;;;4985546;28;20492;-72
2023/02/28 11:11:52;;;;;;;12.27;11.07;;;4.30;99.90;;;;;;4968415;28;20419;-74
2023/02/28 11:14:27;;;;;;;12.27;11.07;;;4.30;99.90;;;;;;4984691;28;20448;-75
2023/02/28 11:16:54;;;;;;;14.17;11.50;;;4.20;99.90;;;;;;4985077;28;20954;-72
2023/02/28 11:19:26;;;;;;;12.23;10.97;;;4.10;99.90;;;;;;4985361;28;20511;-74
2023/02/28 11:21:59;;;;;;;12.20;10.77;;;4.20;99.90;;;;;;4985417;28;20444;-71
2023/02/28 11:24:43;;;;;;;12.20;11.00;;;4.90;99.90;;;;;;4984972;28;20572;-75
2023/02/28 11:27:31;;;;;;;12.60;11.27;;;6.30;97.90;;;;;;4985280;28;20407;-72
2023/02/28 11:29:58;;;;;;;14.30;11.70;;;7.90;95.20;;;;;;4984486;28;20416;-71
2023/02/28 11:32:30;;;;;;;12.70;11.40;;;8.10;93.50;;;;;;4984906;28;20453;-70
2023/02/28 11:35:15;;;;;;;11.10;10.03;;;8.90;92.70;;;;;;4984998;28;20451;-74
2023/02/28 11:37:41;;;;;;;12.77;11.07;;;9.90;90.40;;;;;;4967854;28;20414;-72
2023/02/28 11:40:28;;;;;;;11.00;9.90;;;8.90;88.60;;;;;;4985056;28;20426;-73
2023/02/28 11:43:09;;;;;;;12.03;10.83;;;8.90;89.30;;;;;;4984612;28;20439;-72
2023/02/28 11:45:57;;;;;;;13.33;10.80;;;8.30;89.80;;;;;;4985402;28;20406;-73
2023/02/28 11:48:44;;;;;;;14.93;12.17;;;7.10;90.30;;;;;;4984929;28;20405;-73
2023/02/28 11:51:35;;;;;;;14.03;11.70;;;6.60;92.00;;;;;;4984710;28;20412;-73
2023/02/28 11:54:38;;;;;;;12.90;10.93;;;6.00;93.50;;;;;;4984967;28;20434;-73
2023/02/28 11:57:28;;;;;;;12.53;11.37;;;6.90;92.20;;;;;;4984754;28;20779;-71
2023/02/28 11:59:53;;;;;;;14.00;12.00;;;7.30;92.10;;;;;;4984533;28;20702;-72
2023/02/28 12:02:42;;;;;;;12.57;11.23;;;7.70;91.40;;;;;;4984655;28;20462;-72
2023/02/28 12:05:16;;;;;;;14.27;12.60;;;8.20;91.20;;;;;;4984827;28;20180;-72
2023/02/28 12:07:57;;;;;;;12.10;10.90;;;9.10;89.60;;;;;;4984888;28;20657;-71
2023/02/28 12:10:28;;;;;;;16.73;14.83;;;9.60;86.40;;;;;;4984222;28;20414;-71
2023/02/28 12:12:53;;;;;;;13.73;12.43;;;8.60;86.70;;;;;;4984316;28;20478;-72
2023/02/28 12:15:38;;;;;;;16.07;14.37;;;8.30;88.70;;;;;;4984666;28;20420;-73
2023/02/28 12:18:31;;;;;;;11.97;10.77;;;8.10;88.10;;;;;;4967083;28;20175;-74
2023/02/28 12:21:29;;;;;;;10.67;9.67;;;8.90;86.70;;;;;;4984401;28;20818;-73
2023/02/28 12:24:04;;;;;;;13.27;11.87;;;10.60;82.00;;;;;;4984608;28;20429;-74
2023/02/28 12:26:44;;;;;;;11.77;10.50;;;11.50;77.30;;;;;;4984338;28;20428;-72
2023/02/28 12:29:23;;;;;;;21.23;18.43;;;10.90;76.30;;;;;;4982605;28;20858;-73
2023/02/28 12:32:09;;;;;;;10.60;9.60;;;10.30;76.50;;;;;;4966732;28;20426;-72
2023/02/28 12:34:42;;;;;;;12.60;11.30;;;9.70;79.60;;;;;;4984934;28;21017;-72
2023/02/28 12:37:38;;;;;;;16.50;12.80;;;8.60;81.30;;;;;;4984656;28;20414;-72
2023/02/28 12:40:14;;;;;;;15.50;12.70;;;7.30;84.50;;;;;;4974045;28;20419;-70
2023/02/28 12:42:46;;;;;;;13.70;11.20;;;7.30;88.00;;;;;;4984083;28;20479;-72
2023/02/28 12:45:21;;;;;;;13.90;12.60;;;8.90;85.50;;;;;;4983210;28;20470;-70
2023/02/28 12:47:58;;;;;;;12.57;11.27;;;9.70;82.50;;;;;;4984254;28;20453;-71
2023/02/28 12:50:25;;;;;;;11.00;9.90;;;10.70;78.50;;;;;;4966566;28;20417;-72
2023/02/28 12:53:33;;;;;;;12.00;10.90;;;12.20;76.00;;;;;;4984039;28;20463;-70
2023/02/28 12:56:28;;;;;;;13.87;12.40;;;12.30;71.00;;;;;;4984028;28;20411;-71
2023/02/28 12:58:59;;;;;;;12.00;10.90;;;11.90;70.80;;;;;;4984000;28;20792;-73
2023/02/28 13:01:50;;;;;;;19.00;17.20;;;10.60;73.60;;;;;;4984224;28;20451;-71
2023/02/28 13:04:36;;;;;;;14.37;12.37;;;11.20;72.80;;;;;;4984072;28;20939;-70
2023/02/28 13:07:40;;;;;;;12.30;11.10;;;11.60;72.60;;;;;;4983958;28;20393;-71